Terminal Aerodrome Forecast
Issued by NWS

Home | Current Version | Previous Version | Graphics & Text | Print | Product List | Glossary On
Versions: 1 2 3 4 5 6 7 8 9 10 11 12 13 14
000
FTUS43 KICT 231700 RRA
TAFCNU
TAF
KCNU 231741Z 2318/2418 34013G18KT P6SM -RA VCTS SCT040CB OVC090
     FM231900 03010KT P6SM VCSH SCT040 BKN250
     FM240000 06007KT P6SM SCT250
     FM240900 09004KT 5SM BR SKC
     FM241500 12011KT P6SM SKC=

USA.gov is the U.S. government's official web portal to all federal, state and local government web resources and services.